EGGDLELC

Guest
Details From EGGD - Bristol Lulsgate
To LELC - Murcia San Javier
Flight Number -
Tags Generated
Created
Modified
Stats Distance 821 nm / 1,521 km
Max Altitude 0 ft / 0 m
Waypoints 5
Social Downloads 3
Likes 0
Share VATSIM

Download

Looking for another format? Having issues loading an existing format? Contact us
Advertisement - Login to hide

Notes

Generated

Route

EGGD MOKOR LARDA VSJ LELC

ID Type Via Altitude Latitude Longitude Leg Dist Tot Dist Heading (true) Name
O EGGD APT - 0 ft / 0 m 51.38211˚ -2.73350˚ - 0 nm - -
MOKOR FIX - 0 ft / 0 m 47.00694˚ -2.01389˚ 264 nm 264 nm 174° / 174° -
LARDA FIX - 0 ft / 0 m 42.13158˚ -1.36209˚ 294 nm 558 nm 174° / 175° -
VSJ VOR - 0 ft / 0 m 37.77978˚ -0.81278˚ 262 nm 820 nm 174° / 175° MURCIA/SAN JAVIER VOR-DME
O LELC APT - 0 ft / 0 m 37.78675˚ -0.81389˚ 0 nm 821 nm 353° / 353° -

Altitude Profile

Advertisement - Login to hide

Weather


0- 5 10 15 20 25 30 35+ Temperature / ° C

Clouds and Precipitation
Forecast for 2017-12-16 06:00 UTC. Updated a minute ago

Ground ~20,000 ft ~40,000 ft Winds

EGGD

Details ICAO EGGD (BRS)
Name Bristol International
Region United Kingdom
Timezone Europe/London (UTC+0.0)
Stats Elevation 622 ft / 190 m (AMSL)
Location 51.382658° -2.718918°
Runways 1
Magnetic Variation 1.349° W

METAR

EGGD 160520Z AUTO 28008KT 9999 OVC030 02/01 Q1016

Decode

TAF

TAF EGGD 152304Z 1600/1624 30008KT 9999 FEW020 PROB30 TEMPO 1614/1620 29015G25KT 8000 -SHRA BKN014 PROB30 TEMPO 1620/1624 BKN012

Decode

Departure Runways

ID Width Length Bearing (true) Bearing (mag) Surface Threshold Offset Overrun Length
09 148 ft / 45 m 6,655 ft / 2,029 m 86.42° 87.77° Asphalt 0 ft / 0 m 0 ft / 0 m
27 148 ft / 45 m 6,655 ft / 2,029 m 266.44° 267.79° Asphalt 499 ft / 152 m 0 ft / 0 m

LELC

Details ICAO LELC (MJV)
Name Murcia San Javier
Region Spain
Timezone Europe/Madrid (UTC+1.0)
Stats Elevation 11 ft / 3 m (AMSL)
Location 37.780256° -0.812257°
Runways 3
Magnetic Variation 0.120° E

METAR

Not found

TAF

TAF LELC 152300Z 1600/1624 32008KT 9999 FEW040 TX16/1614Z TN07/1606Z

Decode

Destination Runways

ID Width Length Bearing (true) Bearing (mag) Surface Threshold Offset Overrun Length
05L 164 ft / 50 m 6,553 ft / 1,997 m 45.62° 45.50° Asphalt 656 ft / 200 m 0 ft / 0 m
05R 148 ft / 45 m 7,553 ft / 2,302 m 45.63° 45.51° Asphalt 0 ft / 0 m 656 ft / 200 m
14 197 ft / 60 m 2,657 ft / 810 m 136.05° 135.93° Grass 0 ft / 0 m 0 ft / 0 m
23L 148 ft / 45 m 7,553 ft / 2,302 m 225.65° 225.53° Asphalt 0 ft / 0 m 656 ft / 200 m
23R 164 ft / 50 m 6,553 ft / 1,997 m 225.63° 225.51° Asphalt 656 ft / 200 m 0 ft / 0 m
32 197 ft / 60 m 2,657 ft / 810 m 316.05° 315.93° Grass 0 ft / 0 m 0 ft / 0 m

Approach Navaids

Runway Type Ident Frequency Range Bearing (true) Bearing (mag) Slope Elevation
05R Localiser ISJ 110.50 MHz 18 nm / 33 km 45.68° 45.56° - 11 ft / 3 m (AMSL)
05R Glidescope ISJ 110.50 MHz 10 nm / 19 km 45.64° 45.52° 2.80° 11 ft / 3 m (AMSL)

Popular Alternatives